createdAt,value
2019-04-30T00:00:47.505Z,12.00
2019-04-30T00:03:20.609Z,12.00
2019-04-30T00:05:53.830Z,12.00
2019-04-30T00:08:22.096Z,12.00
2019-04-30T00:10:52.002Z,12.00
2019-04-30T00:13:22.609Z,12.00
2019-04-30T00:15:52.698Z,12.00
2019-04-30T00:18:25.496Z,12.00
2019-04-30T00:20:55.512Z,12.00
2019-04-30T00:23:29.292Z,12.00
2019-04-30T00:25:58.415Z,11.90
2019-04-30T00:28:28.438Z,11.90
2019-04-30T00:30:58.232Z,12.00
2019-04-30T00:33:28.150Z,12.00
2019-04-30T00:35:58.200Z,11.90
2019-04-30T00:38:29.467Z,12.00
2019-04-30T00:41:01.962Z,12.00
2019-04-30T00:43:31.400Z,11.90
2019-04-30T00:46:01.391Z,12.00
2019-04-30T00:48:31.389Z,12.00
2019-04-30T00:51:01.916Z,12.00
2019-04-30T00:53:32.097Z,12.00
2019-04-30T00:56:02.190Z,12.00
2019-04-30T00:58:32.058Z,12.00
2019-04-30T01:01:04.894Z,12.00
2019-04-30T01:03:39.491Z,12.00
2019-04-30T01:06:08.669Z,12.00
2019-04-30T01:08:38.789Z,12.00
2019-04-30T01:11:09.732Z,12.00
2019-04-30T01:13:45.628Z,12.10
2019-04-30T01:16:11.108Z,12.10
2019-04-30T01:18:41.110Z,12.10
2019-04-30T01:21:11.302Z,12.10
2019-04-30T01:23:48.200Z,12.10
2019-04-30T01:26:13.113Z,12.10
2019-04-30T01:28:43.285Z,12.10
2019-04-30T01:31:13.177Z,12.10
2019-04-30T01:33:43.077Z,12.10
2019-04-30T01:36:13.458Z,12.00
2019-04-30T01:38:44.886Z,12.00
2019-04-30T01:41:15.121Z,12.00
2019-04-30T01:43:45.654Z,12.00
2019-04-30T01:46:15.460Z,12.00
2019-04-30T01:48:50.560Z,11.90
2019-04-30T01:51:20.464Z,11.90
2019-04-30T01:54:00.738Z,11.80
2019-04-30T01:56:38.913Z,11.70
2019-04-30T01:59:13.113Z,11.70
2019-04-30T02:01:44.678Z,11.60
2019-04-30T02:04:14.841Z,11.50
2019-04-30T02:06:44.630Z,11.50
2019-04-30T02:09:14.558Z,11.40
2019-04-30T02:11:44.466Z,11.30
2019-04-30T02:14:14.424Z,11.20
2019-04-30T02:16:44.263Z,11.20
2019-04-30T02:19:14.081Z,11.10
2019-04-30T02:21:43.865Z,11.10
2019-04-30T02:24:14.444Z,11.00
2019-04-30T02:26:44.362Z,11.00
2019-04-30T02:29:14.146Z,10.90
2019-04-30T02:31:45.138Z,10.90
2019-04-30T02:34:16.596Z,10.90
2019-04-30T02:36:49.918Z,10.90
2019-04-30T02:39:20.347Z,10.90
2019-04-30T02:41:51.229Z,10.90
2019-04-30T02:44:21.598Z,10.90
2019-04-30T02:46:53.926Z,10.80
2019-04-30T02:49:25.979Z,10.80
2019-04-30T02:51:59.401Z,10.80
2019-04-30T02:54:30.891Z,10.70
2019-04-30T02:57:03.082Z,10.70
2019-04-30T02:59:33.597Z,10.60
2019-04-30T03:02:03.442Z,10.60
2019-04-30T03:04:33.219Z,10.50
2019-04-30T03:07:02.993Z,10.40
2019-04-30T03:09:33.493Z,10.30
2019-04-30T03:12:03.434Z,10.30
2019-04-30T03:14:33.315Z,10.20
2019-04-30T03:17:04.773Z,10.10
2019-04-30T03:19:36.198Z,10.10
2019-04-30T03:22:10.032Z,10.00
2019-04-30T03:24:42.439Z,9.90
2019-04-30T03:27:10.806Z,9.80
2019-04-30T03:29:40.829Z,9.80
2019-04-30T03:32:13.970Z,9.70
2019-04-30T03:34:43.450Z,9.60
2019-04-30T03:37:14.062Z,9.60
2019-04-30T03:39:44.143Z,9.50
2019-04-30T03:42:13.937Z,9.50
2019-04-30T03:44:43.723Z,9.40
2019-04-30T03:47:13.602Z,9.40
2019-04-30T03:49:43.538Z,9.30
2019-04-30T03:52:14.273Z,9.30
2019-04-30T03:54:44.757Z,9.20
2019-04-30T03:57:14.595Z,9.20
2019-04-30T03:59:44.427Z,9.10
2019-04-30T04:02:30.056Z,9.10
2019-04-30T04:05:13.278Z,9.00
2019-04-30T04:07:49.838Z,9.00
2019-04-30T04:10:23.170Z,9.00
2019-04-30T04:12:52.998Z,8.90
2019-04-30T04:15:22.812Z,8.90
2019-04-30T04:17:52.600Z,8.80
2019-04-30T04:20:22.366Z,8.80
2019-04-30T04:22:52.263Z,8.80
2019-04-30T04:25:22.117Z,8.80
2019-04-30T04:27:51.936Z,8.80
2019-04-30T04:30:21.849Z,8.70
2019-04-30T04:32:52.422Z,8.70
2019-04-30T04:35:22.209Z,8.70
2019-04-30T04:37:52.025Z,8.70
2019-04-30T04:40:21.936Z,8.80
2019-04-30T04:42:52.437Z,8.80
2019-04-30T04:45:22.212Z,8.80
2019-04-30T04:47:52.026Z,8.80
2019-04-30T04:50:21.863Z,8.90
2019-04-30T04:52:51.717Z,9.00
2019-04-30T04:55:22.267Z,9.20
2019-04-30T04:57:52.206Z,9.50
2019-04-30T05:00:22.063Z,9.80
2019-04-30T05:02:59.418Z,10.20
2019-04-30T05:05:29.841Z,10.70
2019-04-30T05:07:59.919Z,11.40
2019-04-30T05:10:29.897Z,12.00
2019-04-30T05:13:00.497Z,12.70
2019-04-30T05:15:30.310Z,13.30
2019-04-30T05:18:00.116Z,14.00
2019-04-30T05:20:29.940Z,14.60
2019-04-30T05:23:00.322Z,15.10
2019-04-30T05:25:30.149Z,15.50
2019-04-30T05:28:00.175Z,15.90
2019-04-30T05:30:31.676Z,16.30
2019-04-30T05:33:01.842Z,16.60
2019-04-30T05:35:32.422Z,17.00
2019-04-30T05:38:02.233Z,17.30
2019-04-30T05:40:32.193Z,17.60
2019-04-30T05:43:02.709Z,17.90
2019-04-30T05:45:33.770Z,18.10
2019-04-30T05:48:03.714Z,18.40
2019-04-30T05:50:33.590Z,18.60
2019-04-30T05:53:03.465Z,18.80
2019-04-30T05:55:33.356Z,19.00
2019-04-30T05:58:03.166Z,19.20
2019-04-30T06:00:33.694Z,19.50
2019-04-30T06:03:03.533Z,19.70
2019-04-30T06:05:33.408Z,19.90
2019-04-30T06:08:03.232Z,20.10
2019-04-30T06:10:35.487Z,20.40
2019-04-30T06:13:16.148Z,20.60
2019-04-30T06:15:49.010Z,20.80
2019-04-30T06:18:20.431Z,20.90
2019-04-30T06:20:50.366Z,20.90
2019-04-30T06:23:20.378Z,21.00
2019-04-30T06:25:59.567Z,21.10
2019-04-30T06:28:24.286Z,21.20
2019-04-30T06:30:54.377Z,21.30
2019-04-30T06:33:24.254Z,21.30
2019-04-30T06:35:54.350Z,21.30
2019-04-30T06:38:24.312Z,21.20
2019-04-30T06:40:54.131Z,21.10
2019-04-30T06:43:24.268Z,21.10
2019-04-30T06:45:54.404Z,21.10
2019-04-30T06:48:24.578Z,21.00
2019-04-30T06:50:54.401Z,20.90
2019-04-30T06:53:24.277Z,21.00
2019-04-30T06:55:54.102Z,21.00
2019-04-30T06:58:23.902Z,21.10
2019-04-30T07:00:53.704Z,21.20
2019-04-30T07:03:23.533Z,21.30
2019-04-30T07:05:53.399Z,21.30
2019-04-30T07:08:54.847Z,21.40
2019-04-30T07:11:32.586Z,21.40
2019-04-30T07:14:02.440Z,21.60
2019-04-30T07:16:32.252Z,21.70
2019-04-30T07:19:02.090Z,21.90
2019-04-30T07:21:36.405Z,22.10
2019-04-30T07:24:03.653Z,22.30
2019-04-30T07:26:33.448Z,22.50
2019-04-30T07:29:03.240Z,22.80
2019-04-30T07:31:33.149Z,23.00
2019-04-30T07:34:03.042Z,23.30
2019-04-30T07:36:45.342Z,23.60
2019-04-30T07:39:06.725Z,23.80
2019-04-30T07:41:37.188Z,23.90
2019-04-30T07:44:10.755Z,24.10
2019-04-30T07:46:41.157Z,24.30
2019-04-30T07:49:10.223Z,24.40
2019-04-30T07:51:42.046Z,24.50
2019-04-30T07:54:13.263Z,24.70
2019-04-30T07:56:43.261Z,24.80
2019-04-30T07:59:13.077Z,24.90
2019-04-30T08:02:00.217Z,25.00
2019-04-30T08:04:25.891Z,25.10
2019-04-30T08:06:59.558Z,25.10
2019-04-30T08:09:38.775Z,25.20
2019-04-30T08:12:00.611Z,25.40
2019-04-30T08:14:31.210Z,25.40
2019-04-30T08:17:01.147Z,25.50
2019-04-30T08:19:32.059Z,25.60
2019-04-30T08:22:01.897Z,25.70
2019-04-30T08:24:31.837Z,25.80
2019-04-30T08:27:01.653Z,25.90
2019-04-30T08:29:31.449Z,26.00
2019-04-30T08:32:02.017Z,26.10
2019-04-30T08:34:31.884Z,26.20
2019-04-30T08:37:12.951Z,26.30
2019-04-30T08:39:34.335Z,26.40
2019-04-30T08:42:04.293Z,26.40
2019-04-30T08:44:34.195Z,26.50
2019-04-30T08:47:04.025Z,26.60
2019-04-30T08:49:34.133Z,26.70
2019-04-30T08:52:04.310Z,26.80
2019-04-30T08:54:34.677Z,26.80
2019-04-30T08:57:05.393Z,26.80
2019-04-30T08:59:35.314Z,26.80
2019-04-30T09:02:15.320Z,26.90
2019-04-30T09:04:38.785Z,26.90
2019-04-30T09:07:10.252Z,26.80
2019-04-30T09:09:40.214Z,26.70
2019-04-30T09:12:12.366Z,26.80
2019-04-30T09:14:42.263Z,26.90
2019-04-30T09:17:12.048Z,26.90
2019-04-30T09:19:42.171Z,27.00
2019-04-30T09:22:15.104Z,27.10
2019-04-30T09:24:43.481Z,27.10
2019-04-30T09:27:13.598Z,27.10
2019-04-30T09:29:44.662Z,27.20
2019-04-30T09:32:14.530Z,27.10
2019-04-30T09:34:44.348Z,26.90
2019-04-30T09:37:14.250Z,26.80
2019-04-30T09:39:44.172Z,26.50
2019-04-30T09:42:14.035Z,26.30
2019-04-30T09:44:43.822Z,26.00
2019-04-30T09:47:13.703Z,25.80
2019-04-30T09:49:43.486Z,25.60
2019-04-30T09:52:13.418Z,25.30
2019-04-30T09:54:43.590Z,24.90
2019-04-30T09:57:13.475Z,24.50
2019-04-30T09:59:43.353Z,24.00
2019-04-30T10:02:13.796Z,23.60
2019-04-30T10:04:44.169Z,23.10
2019-04-30T10:07:14.358Z,22.70
2019-04-30T10:09:44.494Z,22.30
2019-04-30T10:12:15.581Z,22.00
2019-04-30T10:14:45.482Z,21.70
2019-04-30T10:17:20.730Z,21.50
2019-04-30T10:19:50.531Z,21.30
2019-04-30T10:22:20.376Z,21.10
2019-04-30T10:24:51.341Z,21.00
2019-04-30T10:27:21.219Z,20.90
2019-04-30T10:29:51.291Z,20.80
2019-04-30T10:32:21.090Z,20.70
2019-04-30T10:34:50.894Z,20.60
2019-04-30T10:37:21.078Z,20.50
2019-04-30T10:39:51.123Z,20.40
2019-04-30T10:42:21.165Z,20.20
2019-04-30T10:44:51.936Z,20.10
2019-04-30T10:47:22.002Z,20.00
2019-04-30T10:49:52.900Z,19.90
2019-04-30T10:52:22.978Z,19.90
2019-04-30T10:54:52.778Z,19.80
2019-04-30T10:57:22.867Z,19.90
2019-04-30T10:59:52.790Z,19.80
2019-04-30T11:02:22.806Z,19.90
2019-04-30T11:04:52.625Z,19.90
2019-04-30T11:07:22.434Z,20.00
2019-04-30T11:09:52.326Z,20.00
2019-04-30T11:12:22.148Z,20.00
2019-04-30T11:14:52.170Z,19.90
2019-04-30T11:17:22.125Z,19.80
2019-04-30T11:19:52.165Z,19.80
2019-04-30T11:22:22.416Z,19.70
2019-04-30T11:24:59.086Z,19.70
2019-04-30T11:27:24.355Z,19.70
2019-04-30T11:30:00.562Z,19.60
2019-04-30T11:32:26.170Z,19.60
2019-04-30T11:34:56.125Z,19.50
2019-04-30T11:37:25.990Z,19.50
2019-04-30T11:39:56.594Z,19.60
2019-04-30T11:42:26.421Z,19.60
2019-04-30T11:44:58.643Z,19.60
2019-04-30T11:47:30.433Z,19.60
2019-04-30T11:50:00.654Z,19.50
2019-04-30T11:52:30.654Z,19.50
2019-04-30T11:55:00.850Z,19.50
2019-04-30T11:57:31.015Z,19.50
2019-04-30T12:00:01.703Z,19.60
2019-04-30T12:02:35.529Z,19.60
2019-04-30T12:05:07.773Z,19.60
2019-04-30T12:07:40.046Z,19.70
2019-04-30T12:10:14.989Z,19.70
2019-04-30T12:12:44.802Z,19.80
2019-04-30T12:15:14.772Z,19.80
2019-04-30T12:17:44.622Z,19.90
2019-04-30T12:20:15.808Z,20.00
2019-04-30T12:22:45.638Z,20.00
2019-04-30T12:25:15.786Z,20.10
2019-04-30T12:27:45.574Z,20.10
2019-04-30T12:30:16.325Z,20.20
2019-04-30T12:32:49.232Z,20.20
2019-04-30T12:35:18.945Z,20.20
2019-04-30T12:37:52.093Z,20.20
2019-04-30T12:40:29.072Z,20.20
2019-04-30T12:42:52.352Z,20.20
2019-04-30T12:45:22.483Z,20.20
2019-04-30T12:47:54.565Z,20.20
2019-04-30T12:50:35.023Z,20.10
2019-04-30T12:53:06.553Z,20.10
2019-04-30T12:55:41.481Z,20.10
2019-04-30T12:58:11.969Z,20.00
2019-04-30T13:00:41.790Z,19.90
2019-04-30T13:03:11.677Z,19.80
2019-04-30T13:05:41.593Z,19.70
2019-04-30T13:08:12.587Z,19.60
2019-04-30T13:10:43.040Z,19.60
2019-04-30T13:13:13.435Z,19.60
2019-04-30T13:15:43.596Z,19.60
2019-04-30T13:18:13.480Z,19.70
2019-04-30T13:20:43.475Z,19.70
2019-04-30T13:23:13.342Z,19.70
2019-04-30T13:25:51.356Z,19.60
2019-04-30T13:28:17.161Z,19.60
2019-04-30T13:30:49.350Z,19.60
2019-04-30T13:33:38.922Z,19.50
2019-04-30T13:36:08.750Z,19.50
2019-04-30T13:38:49.054Z,19.60
2019-04-30T13:41:30.268Z,19.60
2019-04-30T13:44:01.465Z,19.60
2019-04-30T13:46:31.396Z,19.70
2019-04-30T13:49:01.368Z,19.60
2019-04-30T13:51:31.258Z,19.60
2019-04-30T13:56:37.057Z,19.70
2019-04-30T13:59:07.114Z,19.70
2019-04-30T14:01:38.964Z,19.80
2019-04-30T14:04:10.218Z,19.80
2019-04-30T14:06:45.463Z,19.90
2019-04-30T14:09:27.290Z,19.90
2019-04-30T14:11:57.095Z,19.90
2019-04-30T14:14:26.948Z,19.90
2019-04-30T14:16:59.018Z,19.90
2019-04-30T14:19:29.557Z,19.90
2019-04-30T14:21:59.596Z,19.80
2019-04-30T14:24:29.406Z,19.80
2019-04-30T14:27:00.058Z,19.80
2019-04-30T14:29:30.199Z,19.80
2019-04-30T14:32:01.313Z,19.80
2019-04-30T14:34:32.548Z,19.80
2019-04-30T14:37:02.447Z,19.80
2019-04-30T14:39:32.565Z,19.70
2019-04-30T14:42:03.603Z,19.60
2019-04-30T14:44:35.985Z,19.50
2019-04-30T14:47:12.465Z,19.40
2019-04-30T14:50:02.631Z,19.40
2019-04-30T14:52:29.341Z,19.30
2019-04-30T14:55:08.749Z,19.30
2019-04-30T14:57:57.061Z,19.30
2019-04-30T15:00:43.433Z,19.20
2019-04-30T15:03:19.309Z,19.20
2019-04-30T15:05:51.576Z,19.10
2019-04-30T15:08:20.829Z,19.10
2019-04-30T15:10:50.661Z,19.10
2019-04-30T15:13:20.490Z,19.00
2019-04-30T15:15:50.538Z,19.00
2019-04-30T15:18:20.652Z,19.00
2019-04-30T15:20:51.266Z,18.90
2019-04-30T15:23:41.217Z,18.90
2019-04-30T15:26:21.656Z,18.90
2019-04-30T15:28:42.618Z,18.80
2019-04-30T15:31:12.517Z,18.80
2019-04-30T15:33:47.697Z,18.80
2019-04-30T15:36:19.248Z,18.80
2019-04-30T15:39:06.908Z,18.90
2019-04-30T15:41:38.390Z,18.80
2019-04-30T15:44:08.473Z,18.80
2019-04-30T15:46:38.261Z,18.80
2019-04-30T15:49:08.358Z,18.80
2019-04-30T15:51:39.398Z,18.70
2019-04-30T15:54:09.231Z,18.70
2019-04-30T15:56:40.816Z,18.70
2019-04-30T15:59:14.899Z,18.70
2019-04-30T16:01:46.385Z,18.70
2019-04-30T16:04:18.554Z,18.70
2019-04-30T16:06:49.350Z,18.70
2019-04-30T16:09:35.977Z,18.70
2019-04-30T16:12:16.205Z,18.60
2019-04-30T16:14:46.231Z,18.60
2019-04-30T16:17:21.239Z,18.60
2019-04-30T16:19:51.216Z,18.60
2019-04-30T16:22:21.163Z,18.60
2019-04-30T16:24:50.930Z,18.50
2019-04-30T16:27:20.731Z,18.50
2019-04-30T16:29:50.604Z,18.50
2019-04-30T16:32:21.699Z,18.40
2019-04-30T16:34:51.491Z,18.40
2019-04-30T16:37:21.310Z,18.30
2019-04-30T16:39:51.104Z,18.20
2019-04-30T16:42:21.642Z,18.20
2019-04-30T16:44:51.494Z,18.10
2019-04-30T16:47:21.389Z,18.10
2019-04-30T16:49:51.230Z,18.00
2019-04-30T16:52:21.826Z,17.90
2019-04-30T16:54:51.600Z,17.90
2019-04-30T16:57:21.374Z,17.90
2019-04-30T16:59:53.428Z,17.80
2019-04-30T17:02:24.569Z,17.80
2019-04-30T17:04:56.085Z,17.70
2019-04-30T17:07:38.615Z,17.70
2019-04-30T17:10:18.899Z,17.60
2019-04-30T17:12:53.947Z,17.60
2019-04-30T17:15:25.456Z,17.50
2019-04-30T17:17:55.513Z,17.50
2019-04-30T17:20:25.291Z,17.40
2019-04-30T17:22:55.106Z,17.40
2019-04-30T17:25:24.883Z,17.30
2019-04-30T17:27:54.769Z,17.30
2019-04-30T17:30:24.809Z,17.20
2019-04-30T17:32:54.572Z,17.20
2019-04-30T17:35:24.446Z,17.20
2019-04-30T17:37:54.330Z,17.10
2019-04-30T17:40:24.212Z,17.00
2019-04-30T17:42:54.764Z,17.00
2019-04-30T17:45:24.620Z,16.90
2019-04-30T17:47:54.389Z,16.80
2019-04-30T17:50:24.188Z,16.80
2019-04-30T17:52:53.989Z,16.70
2019-04-30T17:55:24.054Z,16.70
2019-04-30T17:57:55.029Z,16.60
2019-04-30T18:00:25.707Z,16.50
2019-04-30T18:02:55.579Z,16.50
2019-04-30T18:05:25.351Z,16.40
2019-04-30T18:07:55.208Z,16.40
2019-04-30T18:10:26.089Z,16.30
2019-04-30T18:12:55.915Z,16.30
2019-04-30T18:15:28.555Z,16.20
2019-04-30T18:18:06.075Z,16.20
2019-04-30T18:20:39.174Z,16.10
2019-04-30T18:23:26.716Z,16.00
2019-04-30T18:26:07.952Z,15.90
2019-04-30T18:28:37.750Z,15.80
2019-04-30T18:31:08.864Z,15.70
2019-04-30T18:33:38.780Z,15.70
2019-04-30T18:36:09.582Z,15.60
2019-04-30T18:38:42.974Z,15.50
2019-04-30T18:41:13.604Z,15.40
2019-04-30T18:43:43.642Z,15.40
2019-04-30T18:46:13.493Z,15.30
2019-04-30T18:48:43.269Z,15.20
2019-04-30T18:51:29.957Z,15.10
2019-04-30T18:53:47.021Z,15.00
2019-04-30T18:56:16.401Z,15.00
2019-04-30T18:58:46.298Z,14.90
2019-04-30T19:01:16.278Z,14.80
2019-04-30T19:03:46.045Z,14.70
2019-04-30T19:06:26.454Z,14.60
2019-04-30T19:08:58.461Z,14.60
2019-04-30T19:11:33.986Z,14.50
2019-04-30T19:14:22.410Z,14.40
2019-04-30T19:17:03.054Z,14.40
2019-04-30T19:19:36.435Z,14.30
2019-04-30T19:22:06.433Z,14.30
2019-04-30T19:24:37.270Z,14.20
2019-04-30T19:27:08.670Z,14.10
2019-04-30T19:29:38.557Z,14.00
2019-04-30T19:32:09.400Z,13.90
2019-04-30T19:34:39.493Z,13.90
2019-04-30T19:37:09.293Z,13.80
2019-04-30T19:39:39.301Z,13.70
2019-04-30T19:42:09.308Z,13.70
2019-04-30T19:44:39.540Z,13.60
2019-04-30T19:47:09.467Z,13.50
2019-04-30T19:49:40.731Z,13.50
2019-04-30T19:52:11.775Z,13.40
2019-04-30T19:54:42.045Z,13.30
2019-04-30T19:57:11.887Z,13.30
2019-04-30T19:59:41.670Z,13.20
2019-04-30T20:02:11.681Z,13.20
2019-04-30T20:04:42.309Z,13.10
2019-04-30T20:07:12.192Z,13.00
2019-04-30T20:09:43.194Z,12.90
2019-04-30T20:12:13.091Z,12.90
2019-04-30T20:14:42.923Z,12.80
2019-04-30T20:17:13.194Z,12.70
2019-04-30T20:19:43.223Z,12.60
2019-04-30T20:22:14.197Z,12.60
2019-04-30T20:24:44.134Z,12.50
2019-04-30T20:27:13.953Z,12.40
2019-04-30T20:29:43.725Z,12.30
2019-04-30T20:32:13.533Z,12.30
2019-04-30T20:34:43.338Z,12.20
2019-04-30T20:37:13.187Z,12.10
2019-04-30T20:39:56.385Z,12.10
2019-04-30T20:42:26.422Z,12.00
2019-04-30T20:44:58.785Z,11.90
2019-04-30T20:47:30.038Z,11.80
2019-04-30T20:49:59.972Z,11.70
2019-04-30T20:52:32.225Z,11.70
2019-04-30T20:55:01.292Z,11.60
2019-04-30T20:57:31.790Z,11.50
2019-04-30T21:00:01.630Z,11.40
2019-04-30T21:02:33.042Z,11.40
2019-04-30T21:05:02.925Z,11.30
2019-04-30T21:07:32.701Z,11.30
2019-04-30T21:10:02.482Z,11.20
2019-04-30T21:12:32.293Z,11.10
2019-04-30T21:15:02.107Z,11.10
2019-04-30T21:17:33.362Z,11.00
2019-04-30T21:20:03.286Z,10.90
2019-04-30T21:22:33.091Z,10.80
2019-04-30T21:25:03.278Z,10.80
2019-04-30T21:27:33.050Z,10.80
2019-04-30T21:30:02.881Z,10.70
2019-04-30T21:32:51.208Z,10.70
2019-04-30T21:35:25.426Z,10.60
2019-04-30T21:37:59.040Z,10.60
2019-04-30T21:40:29.635Z,10.50
2019-04-30T21:42:59.514Z,10.50
2019-04-30T21:45:31.485Z,10.40
2019-04-30T21:48:01.687Z,10.40
2019-04-30T21:50:31.536Z,10.30
2019-04-30T21:53:02.069Z,10.30
2019-04-30T21:55:31.882Z,10.20
2019-04-30T21:58:01.682Z,10.20
2019-04-30T22:00:36.232Z,10.20
2019-04-30T22:03:09.709Z,10.10
2019-04-30T22:05:39.373Z,10.10
2019-04-30T22:08:09.301Z,10.00
2019-04-30T22:10:39.290Z,9.90
2019-04-30T22:13:09.049Z,9.90
2019-04-30T22:15:38.904Z,10.00
2019-04-30T22:18:08.786Z,9.80
2019-04-30T22:20:38.950Z,9.80
2019-04-30T22:23:08.942Z,9.70
2019-04-30T22:25:39.236Z,9.70
2019-04-30T22:28:09.161Z,9.60
2019-04-30T22:30:39.154Z,9.60
2019-04-30T22:33:10.799Z,9.50
2019-04-30T22:35:45.493Z,9.50
2019-04-30T22:38:29.254Z,9.40
2019-04-30T22:40:59.951Z,9.40
2019-04-30T22:43:30.553Z,9.40
2019-04-30T22:46:10.797Z,9.30
2019-04-30T22:48:40.601Z,9.20
2019-04-30T22:51:10.625Z,9.20
2019-04-30T22:53:40.442Z,9.20
2019-04-30T22:56:10.293Z,9.20
2019-04-30T22:58:40.978Z,9.20
2019-04-30T23:01:12.433Z,9.20
2019-04-30T23:03:42.545Z,9.20
2019-04-30T23:06:13.099Z,9.30
2019-04-30T23:08:42.936Z,9.30
2019-04-30T23:11:12.736Z,9.30
2019-04-30T23:13:42.653Z,9.30
2019-04-30T23:16:12.747Z,9.30
2019-04-30T23:18:42.554Z,9.40
2019-04-30T23:21:13.081Z,9.40
2019-04-30T23:23:42.850Z,9.40
2019-04-30T23:26:12.752Z,9.30
2019-04-30T23:28:42.561Z,9.30
2019-04-30T23:31:12.340Z,9.30
2019-04-30T23:33:42.340Z,9.20
2019-04-30T23:36:12.257Z,9.10
2019-04-30T23:38:42.026Z,9.10
2019-04-30T23:41:11.843Z,9.10
2019-04-30T23:43:41.628Z,9.10
2019-04-30T23:46:12.439Z,9.10
2019-04-30T23:48:43.223Z,9.10
2019-04-30T23:51:13.898Z,9.10
2019-04-30T23:53:43.753Z,9.00
2019-04-30T23:56:13.704Z,9.00
2019-04-30T23:58:43.551Z,9.00
